createdAt,value
2022-10-25T00:00:23.029Z,100.00
2022-10-25T00:03:24.648Z,100.00
2022-10-25T00:06:26.293Z,100.00
2022-10-25T00:09:27.811Z,100.00
2022-10-25T00:12:29.349Z,100.00
2022-10-25T00:15:30.946Z,100.00
2022-10-25T00:18:32.476Z,100.00
2022-10-25T00:21:34.043Z,100.00
2022-10-25T00:24:35.617Z,100.00
2022-10-25T00:27:37.242Z,100.00
2022-10-25T00:30:38.852Z,100.00
2022-10-25T00:33:42.306Z,100.00
2022-10-25T00:36:43.912Z,100.00
2022-10-25T00:39:45.861Z,100.00
2022-10-25T00:42:47.562Z,100.00
2022-10-25T00:45:49.418Z,100.00
2022-10-25T00:48:53.073Z,100.00
2022-10-25T00:51:56.374Z,100.00
2022-10-25T00:54:57.889Z,100.00
2022-10-25T00:58:04.402Z,100.00
2022-10-25T01:01:06.447Z,100.00
2022-10-25T01:04:09.362Z,100.00
2022-10-25T01:07:11.017Z,100.00
2022-10-25T01:10:12.553Z,100.00
2022-10-25T01:13:14.089Z,100.00
2022-10-25T01:16:18.393Z,100.00
2022-10-25T01:19:30.290Z,100.00
2022-10-25T01:22:54.889Z,100.00
2022-10-25T01:26:02.447Z,100.00
2022-10-25T01:29:12.226Z,100.00
2022-10-25T01:32:16.463Z,100.00
2022-10-25T01:35:31.156Z,100.00
2022-10-25T01:38:35.815Z,100.00
2022-10-25T01:41:46.310Z,100.00
2022-10-25T01:45:02.946Z,100.00
2022-10-25T01:48:30.589Z,100.00
2022-10-25T01:51:34.296Z,100.00
2022-10-25T01:54:35.933Z,100.00
2022-10-25T01:57:37.436Z,100.00
2022-10-25T02:00:51.196Z,100.00
2022-10-25T02:03:52.755Z,100.00
2022-10-25T02:07:26.685Z,100.00
2022-10-25T02:10:28.158Z,100.00
2022-10-25T02:13:36.701Z,100.00
2022-10-25T02:17:04.728Z,100.00
2022-10-25T02:20:06.434Z,100.00
2022-10-25T02:23:07.959Z,100.00
2022-10-25T02:26:09.825Z,100.00
2022-10-25T02:29:11.465Z,100.00
2022-10-25T02:32:13.079Z,100.00
2022-10-25T02:35:15.511Z,100.00
2022-10-25T02:38:17.098Z,100.00
2022-10-25T02:41:19.231Z,100.00
2022-10-25T02:44:20.843Z,100.00
2022-10-25T02:47:22.366Z,100.00
2022-10-25T02:50:24.001Z,100.00
2022-10-25T02:53:25.534Z,100.00
2022-10-25T02:56:27.129Z,100.00
2022-10-25T02:59:29.781Z,100.00
2022-10-25T03:02:31.312Z,100.00
2022-10-25T03:05:32.841Z,100.00
2022-10-25T03:08:34.653Z,100.00
2022-10-25T03:11:36.215Z,100.00
2022-10-25T03:14:37.837Z,100.00
2022-10-25T03:17:39.374Z,100.00
2022-10-25T03:20:41.266Z,100.00
2022-10-25T03:23:42.808Z,100.00
2022-10-25T03:26:44.362Z,100.00
2022-10-25T03:29:45.923Z,100.00
2022-10-25T03:32:47.673Z,100.00
2022-10-25T03:35:49.885Z,100.00
2022-10-25T03:38:51.439Z,100.00
2022-10-25T03:41:52.984Z,100.00
2022-10-25T03:44:54.574Z,100.00
2022-10-25T03:47:56.071Z,100.00
2022-10-25T03:50:57.626Z,100.00
2022-10-25T03:53:59.186Z,100.00
2022-10-25T03:57:01.075Z,100.00
2022-10-25T04:00:02.774Z,100.00
2022-10-25T04:03:13.271Z,100.00
2022-10-25T04:06:14.789Z,100.00
2022-10-25T04:09:16.475Z,100.00
2022-10-25T04:12:17.997Z,100.00
2022-10-25T04:15:19.585Z,100.00
2022-10-25T04:18:21.220Z,100.00
2022-10-25T04:21:23.264Z,100.00
2022-10-25T04:24:24.805Z,100.00
2022-10-25T04:27:26.337Z,100.00
2022-10-25T04:30:27.870Z,100.00
2022-10-25T04:33:29.434Z,100.00
2022-10-25T04:36:31.333Z,100.00
2022-10-25T04:39:32.870Z,100.00
2022-10-25T04:42:34.569Z,100.00
2022-10-25T04:45:36.144Z,100.00
2022-10-25T04:48:38.256Z,100.00
2022-10-25T04:51:40.038Z,100.00
2022-10-25T04:54:41.650Z,100.00
2022-10-25T04:57:43.333Z,100.00
2022-10-25T05:00:46.716Z,100.00
2022-10-25T05:03:49.056Z,100.00
2022-10-25T05:06:50.569Z,100.00
2022-10-25T05:09:52.128Z,100.00
2022-10-25T05:12:54.348Z,100.00
2022-10-25T05:15:56.529Z,100.00
2022-10-25T05:18:58.112Z,100.00
2022-10-25T05:21:59.623Z,100.00
2022-10-25T05:25:01.132Z,100.00
2022-10-25T05:28:02.686Z,100.00
2022-10-25T05:34:17.220Z,100.00
2022-10-25T05:37:18.765Z,100.00
2022-10-25T05:40:20.332Z,100.00
2022-10-25T05:43:21.881Z,100.00
2022-10-25T05:46:23.646Z,100.00
2022-10-25T05:49:25.152Z,100.00
2022-10-25T05:52:26.833Z,100.00
2022-10-25T05:55:28.367Z,100.00
2022-10-25T05:58:30.137Z,100.00
2022-10-25T06:01:31.800Z,100.00
2022-10-25T06:04:33.432Z,100.00
2022-10-25T06:07:34.982Z,100.00
2022-10-25T06:10:36.609Z,100.00
2022-10-25T06:13:38.401Z,100.00
2022-10-25T06:16:39.983Z,100.00
2022-10-25T06:19:41.560Z,100.00
2022-10-25T06:22:43.811Z,100.00
2022-10-25T06:25:45.513Z,100.00
2022-10-25T06:28:47.169Z,100.00
2022-10-25T06:31:49.608Z,100.00
2022-10-25T06:34:51.162Z,100.00
2022-10-25T06:37:52.784Z,100.00
2022-10-25T06:41:00.764Z,100.00
2022-10-25T06:44:06.534Z,100.00
2022-10-25T06:47:23.922Z,100.00
2022-10-25T06:50:25.539Z,100.00
2022-10-25T06:53:27.565Z,100.00
2022-10-25T06:56:29.245Z,100.00
2022-10-25T06:59:30.902Z,100.00
2022-10-25T07:02:32.592Z,100.00
2022-10-25T07:05:34.243Z,100.00
2022-10-25T07:08:36.363Z,100.00
2022-10-25T07:11:38.123Z,100.00
2022-10-25T07:14:39.734Z,100.00
2022-10-25T07:17:41.314Z,100.00
2022-10-25T07:20:48.396Z,100.00
2022-10-25T07:23:50.399Z,100.00
2022-10-25T07:26:51.953Z,100.00
2022-10-25T07:29:53.635Z,100.00
2022-10-25T07:32:55.195Z,100.00
2022-10-25T07:36:09.763Z,100.00
2022-10-25T07:39:12.391Z,100.00
2022-10-25T07:42:13.938Z,100.00
2022-10-25T07:45:18.696Z,100.00
2022-10-25T07:48:23.937Z,100.00
2022-10-25T07:51:25.530Z,100.00
2022-10-25T07:54:27.098Z,100.00
2022-10-25T07:57:28.666Z,100.00
2022-10-25T08:00:30.254Z,100.00
2022-10-25T08:03:32.113Z,100.00
2022-10-25T08:06:36.394Z,100.00
2022-10-25T08:09:38.746Z,100.00
2022-10-25T08:12:40.560Z,100.00
2022-10-25T08:15:42.182Z,100.00
2022-10-25T08:18:44.242Z,100.00
2022-10-25T08:21:46.302Z,100.00
2022-10-25T08:24:47.977Z,100.00
2022-10-25T08:27:49.734Z,100.00
2022-10-25T08:30:52.806Z,100.00
2022-10-25T08:33:54.451Z,100.00
2022-10-25T08:36:56.117Z,100.00
2022-10-25T08:39:57.751Z,100.00
2022-10-25T08:42:59.302Z,100.00
2022-10-25T08:46:02.305Z,100.00
2022-10-25T08:49:24.148Z,100.00
2022-10-25T08:52:30.664Z,100.00
2022-10-25T08:55:33.120Z,100.00
2022-10-25T08:58:38.473Z,100.00
2022-10-25T09:01:53.687Z,100.00
2022-10-25T09:04:55.332Z,100.00
2022-10-25T09:08:06.026Z,100.00
2022-10-25T09:11:10.682Z,100.00
2022-10-25T09:14:15.174Z,100.00
2022-10-25T09:17:19.778Z,100.00
2022-10-25T09:20:23.632Z,100.00
2022-10-25T09:23:29.706Z,100.00
2022-10-25T09:26:31.365Z,100.00
2022-10-25T09:29:37.809Z,100.00
2022-10-25T09:32:40.561Z,100.00
2022-10-25T09:35:52.055Z,99.98
2022-10-25T09:38:54.723Z,100.00
2022-10-25T09:41:56.320Z,100.00
2022-10-25T09:44:59.873Z,100.00
2022-10-25T09:48:06.008Z,100.00
2022-10-25T09:51:25.091Z,100.00
2022-10-25T09:54:38.544Z,100.00
2022-10-25T09:57:40.239Z,100.00
2022-10-25T10:00:41.905Z,99.72
2022-10-25T10:03:44.667Z,99.90
2022-10-25T10:06:50.765Z,99.95
2022-10-25T10:09:52.506Z,98.90
2022-10-25T10:13:12.404Z,98.80
2022-10-25T10:16:16.829Z,99.71
2022-10-25T10:19:19.422Z,99.70
2022-10-25T10:22:21.018Z,99.82
2022-10-25T10:25:24.390Z,99.44
2022-10-25T10:28:26.006Z,100.00
2022-10-25T10:31:33.345Z,99.78
2022-10-25T10:34:44.481Z,98.78
2022-10-25T10:37:46.300Z,98.04
2022-10-25T10:40:50.806Z,97.08
2022-10-25T10:44:06.698Z,95.73
2022-10-25T10:47:12.239Z,93.32
2022-10-25T10:50:23.113Z,91.57
2022-10-25T10:53:33.023Z,91.49
2022-10-25T10:56:34.560Z,92.03
2022-10-25T10:59:51.850Z,93.65
2022-10-25T11:05:56.572Z,95.21
2022-10-25T11:09:24.939Z,96.44
2022-10-25T11:12:26.470Z,96.16
2022-10-25T11:15:30.012Z,94.46
2022-10-25T11:18:47.174Z,93.56
2022-10-25T11:22:07.564Z,95.35
2022-10-25T11:25:18.350Z,94.87
2022-10-25T11:28:38.815Z,94.97
2022-10-25T11:31:54.423Z,95.68
2022-10-25T11:35:02.297Z,94.99
2022-10-25T11:38:04.041Z,95.29
2022-10-25T11:41:16.219Z,95.33
2022-10-25T11:44:17.750Z,92.96
2022-10-25T11:47:19.323Z,93.21
2022-10-25T11:50:50.357Z,90.59
2022-10-25T11:54:03.207Z,90.63
2022-10-25T11:57:13.088Z,90.11
2022-10-25T12:00:15.482Z,90.77
2022-10-25T12:03:17.479Z,89.34
2022-10-25T12:06:45.695Z,88.84
2022-10-25T12:10:05.658Z,88.87
2022-10-25T12:13:21.190Z,88.98
2022-10-25T12:16:22.748Z,89.33
2022-10-25T12:19:25.178Z,87.86
2022-10-25T12:22:43.343Z,89.19
2022-10-25T12:25:47.209Z,88.25
2022-10-25T12:28:49.472Z,89.46
2022-10-25T12:31:54.381Z,89.73
2022-10-25T12:34:55.966Z,89.46
2022-10-25T12:38:17.570Z,89.48
2022-10-25T12:41:20.869Z,89.54
2022-10-25T12:44:31.637Z,88.02
2022-10-25T12:47:33.185Z,85.86
2022-10-25T12:50:38.967Z,81.84
2022-10-25T12:53:49.090Z,82.35
2022-10-25T12:56:54.641Z,79.17
2022-10-25T13:00:02.406Z,79.93
2022-10-25T13:03:22.730Z,78.48
2022-10-25T13:06:47.245Z,78.90
2022-10-25T13:09:48.853Z,79.35
2022-10-25T13:13:01.028Z,80.37
2022-10-25T13:16:03.063Z,81.91
2022-10-25T13:19:25.740Z,83.63
2022-10-25T13:22:39.415Z,84.49
2022-10-25T13:25:47.229Z,86.54
2022-10-25T13:28:49.784Z,87.47
2022-10-25T13:31:59.046Z,88.24
2022-10-25T13:35:02.332Z,89.91
2022-10-25T13:38:07.344Z,91.40
2022-10-25T13:41:18.741Z,91.98
2022-10-25T13:44:21.113Z,92.54
2022-10-25T13:47:41.905Z,92.83
2022-10-25T13:50:43.870Z,92.15
2022-10-25T13:53:46.114Z,90.53
2022-10-25T13:56:51.908Z,89.72
2022-10-25T13:59:53.476Z,90.35
2022-10-25T14:03:10.282Z,92.20
2022-10-25T14:06:17.521Z,92.40
2022-10-25T14:09:19.963Z,93.08
2022-10-25T14:12:21.495Z,85.50
2022-10-25T14:15:30.372Z,81.23
2022-10-25T14:18:33.768Z,82.49
2022-10-25T14:21:35.305Z,84.70
2022-10-25T14:24:36.864Z,86.12
2022-10-25T14:27:38.401Z,88.40
2022-10-25T14:30:41.904Z,89.66
2022-10-25T14:33:49.770Z,90.59
2022-10-25T14:36:55.044Z,92.23
2022-10-25T14:39:56.622Z,93.51
2022-10-25T14:43:17.058Z,93.42
2022-10-25T14:46:19.773Z,94.13
2022-10-25T14:49:21.905Z,94.62
2022-10-25T14:52:23.547Z,94.48
2022-10-25T14:55:32.994Z,94.63
2022-10-25T14:58:41.628Z,94.40
2022-10-25T15:01:51.868Z,94.62
2022-10-25T15:04:54.127Z,94.13
2022-10-25T15:07:56.634Z,94.40
2022-10-25T15:10:58.744Z,94.18
2022-10-25T15:14:00.249Z,93.03
2022-10-25T15:17:03.576Z,92.60
2022-10-25T15:20:05.506Z,93.51
2022-10-25T15:23:14.959Z,93.61
2022-10-25T15:26:28.521Z,95.00
2022-10-25T15:29:30.146Z,95.97
2022-10-25T15:32:31.887Z,96.46
2022-10-25T15:35:33.712Z,97.22
2022-10-25T15:39:06.794Z,98.70
2022-10-25T15:41:57.523Z,99.27
2022-10-25T15:44:59.066Z,99.58
2022-10-25T15:48:00.690Z,99.88
2022-10-25T15:51:02.203Z,99.57
2022-10-25T15:54:03.799Z,99.66
2022-10-25T15:57:05.361Z,99.97
2022-10-25T16:00:07.210Z,99.84
2022-10-25T16:03:20.447Z,99.41
2022-10-25T16:06:22.158Z,98.99
2022-10-25T16:09:23.930Z,98.83
2022-10-25T16:12:31.231Z,98.92
2022-10-25T16:15:32.842Z,98.92
2022-10-25T16:18:34.541Z,98.75
2022-10-25T16:21:36.337Z,99.48
2022-10-25T16:24:38.069Z,99.37
2022-10-25T16:27:40.037Z,100.00
2022-10-25T16:30:43.893Z,100.00
2022-10-25T16:33:45.606Z,100.00
2022-10-25T16:36:47.529Z,100.00
2022-10-25T16:39:49.101Z,100.00
2022-10-25T16:42:51.091Z,100.00
2022-10-25T16:45:52.858Z,100.00
2022-10-25T16:48:55.978Z,100.00
2022-10-25T16:51:59.809Z,100.00
2022-10-25T16:55:01.393Z,100.00
2022-10-25T16:58:02.980Z,100.00
2022-10-25T17:01:05.540Z,100.00
2022-10-25T17:04:07.193Z,100.00
2022-10-25T17:07:08.767Z,100.00
2022-10-25T17:10:11.385Z,100.00
2022-10-25T17:13:15.769Z,100.00
2022-10-25T17:16:17.340Z,100.00
2022-10-25T17:19:18.864Z,100.00
2022-10-25T17:22:21.912Z,100.00
2022-10-25T17:25:23.477Z,100.00
2022-10-25T17:28:25.114Z,100.00
2022-10-25T17:31:28.367Z,100.00
2022-10-25T17:34:32.098Z,100.00
2022-10-25T17:37:33.974Z,100.00
2022-10-25T17:40:37.481Z,100.00
2022-10-25T17:43:39.789Z,100.00
2022-10-25T17:46:41.382Z,100.00
2022-10-25T17:49:43.110Z,100.00
2022-10-25T17:52:44.644Z,100.00
2022-10-25T17:55:46.184Z,100.00
2022-10-25T17:58:48.666Z,100.00
2022-10-25T18:01:50.392Z,100.00
2022-10-25T18:05:18.961Z,100.00
2022-10-25T18:08:13.718Z,100.00
2022-10-25T18:11:19.332Z,100.00
2022-10-25T18:14:21.004Z,100.00
2022-10-25T18:17:22.660Z,100.00
2022-10-25T18:20:25.398Z,100.00
2022-10-25T18:23:27.137Z,100.00
2022-10-25T18:26:29.175Z,100.00
2022-10-25T18:29:32.674Z,100.00
2022-10-25T18:32:36.240Z,100.00
2022-10-25T18:35:38.007Z,100.00
2022-10-25T18:38:39.853Z,100.00
2022-10-25T18:41:42.486Z,100.00
2022-10-25T18:44:44.758Z,100.00
2022-10-25T18:47:50.363Z,100.00
2022-10-25T18:50:52.190Z,100.00
2022-10-25T18:53:54.294Z,100.00
2022-10-25T18:56:55.892Z,100.00
2022-10-25T18:59:57.385Z,100.00
2022-10-25T19:02:59.016Z,100.00
2022-10-25T19:06:00.576Z,100.00
2022-10-25T19:09:03.092Z,100.00
2022-10-25T19:12:04.859Z,100.00
2022-10-25T19:15:06.764Z,100.00
2022-10-25T19:18:08.397Z,100.00
2022-10-25T19:21:10.900Z,100.00
2022-10-25T19:24:15.832Z,100.00
2022-10-25T19:27:17.417Z,100.00
2022-10-25T19:30:18.933Z,100.00
2022-10-25T19:33:20.664Z,100.00
2022-10-25T19:36:22.234Z,100.00
2022-10-25T19:39:23.924Z,100.00
2022-10-25T19:42:25.437Z,100.00
2022-10-25T19:45:27.019Z,100.00
2022-10-25T19:48:28.843Z,100.00
2022-10-25T19:51:30.457Z,100.00
2022-10-25T19:54:31.992Z,100.00
2022-10-25T19:57:33.736Z,100.00
2022-10-25T20:00:35.380Z,100.00
2022-10-25T20:03:37.340Z,100.00
2022-10-25T20:06:39.021Z,100.00
2022-10-25T20:09:41.298Z,100.00
2022-10-25T20:12:43.808Z,100.00
2022-10-25T20:15:51.292Z,100.00
2022-10-25T20:18:52.866Z,100.00
2022-10-25T20:21:54.479Z,100.00
2022-10-25T20:24:56.114Z,100.00
2022-10-25T20:28:02.323Z,100.00
2022-10-25T20:31:03.867Z,100.00
2022-10-25T20:34:05.562Z,100.00
2022-10-25T20:37:08.731Z,100.00
2022-10-25T20:40:10.436Z,100.00
2022-10-25T20:43:11.989Z,100.00
2022-10-25T20:46:13.756Z,100.00
2022-10-25T20:49:15.370Z,100.00
2022-10-25T20:52:17.209Z,100.00
2022-10-25T20:55:19.241Z,100.00
2022-10-25T20:58:21.989Z,100.00
2022-10-25T21:01:23.673Z,100.00
2022-10-25T21:04:30.649Z,100.00
2022-10-25T21:07:43.594Z,100.00
2022-10-25T21:10:45.148Z,100.00
2022-10-25T21:13:46.659Z,100.00
2022-10-25T21:16:50.173Z,100.00
2022-10-25T21:19:51.713Z,100.00
2022-10-25T21:22:53.258Z,100.00
2022-10-25T21:26:05.419Z,100.00
2022-10-25T21:29:07.043Z,100.00
2022-10-25T21:32:08.643Z,100.00
2022-10-25T21:35:10.167Z,100.00
2022-10-25T21:38:11.714Z,100.00
2022-10-25T21:41:17.459Z,100.00
2022-10-25T21:44:19.207Z,100.00
2022-10-25T21:47:20.772Z,100.00
2022-10-25T21:50:22.284Z,100.00
2022-10-25T21:53:23.887Z,100.00
2022-10-25T21:56:31.234Z,100.00
2022-10-25T21:59:33.283Z,100.00
2022-10-25T22:02:35.009Z,100.00
2022-10-25T22:05:41.994Z,100.00
2022-10-25T22:08:43.575Z,100.00
2022-10-25T22:11:45.161Z,100.00
2022-10-25T22:14:46.693Z,100.00
2022-10-25T22:17:48.242Z,100.00
2022-10-25T22:20:56.491Z,100.00
2022-10-25T22:23:58.033Z,100.00
2022-10-25T22:26:59.563Z,100.00
2022-10-25T22:30:01.103Z,100.00
2022-10-25T22:33:02.638Z,100.00
2022-10-25T22:36:08.904Z,100.00
2022-10-25T22:39:10.542Z,100.00
2022-10-25T22:42:13.741Z,100.00
2022-10-25T22:45:15.339Z,100.00
2022-10-25T22:48:16.974Z,100.00
2022-10-25T22:51:18.684Z,100.00
2022-10-25T22:54:20.231Z,100.00
2022-10-25T22:57:21.813Z,100.00
2022-10-25T23:00:23.390Z,100.00
2022-10-25T23:03:24.924Z,100.00
2022-10-25T23:06:27.380Z,100.00
2022-10-25T23:09:28.924Z,100.00
2022-10-25T23:12:30.415Z,100.00
2022-10-25T23:15:31.944Z,100.00
2022-10-25T23:18:33.510Z,100.00
2022-10-25T23:21:35.042Z,100.00
2022-10-25T23:24:36.545Z,100.00
2022-10-25T23:27:38.088Z,100.00
2022-10-25T23:30:40.027Z,100.00
2022-10-25T23:33:44.688Z,100.00
2022-10-25T23:36:47.385Z,100.00
2022-10-25T23:39:48.936Z,100.00
2022-10-25T23:42:50.491Z,100.00
2022-10-25T23:45:52.097Z,100.00
2022-10-25T23:48:53.609Z,100.00
2022-10-25T23:51:55.128Z,100.00
2022-10-25T23:54:56.650Z,100.00
2022-10-25T23:57:58.509Z,100.00
